Terminal Aerodrome Forecast
Issued by NWS Tampa Bay Area, FL

Home | Current Version | Previous Version | Text Only | Print | Product List | Glossary On
Versions: 1 2 3 4 5 6 7 8 9 10 11 12 13 14 15 16 17 18 19 20 21 22 23 24 25 26 27
681
FTUS42 KTBW 171503 AAA
TAFTPA
TAF AMD
KTPA 171503Z 1715/1812 26007KT P6SM VCTS SCT030CB SCT080 BKN250
     FM172100 31007KT P6SM VCTS FEW040CB BKN060
     FM180200 VRB03KT P6SM SCT050 BKN250=

USA.gov is the U.S. government's official web portal to all federal, state and local government web resources and services.